createdAt,value
2017-03-08T00:00:58.520Z,956.56
2017-03-08T00:01:58.587Z,956.55
2017-03-08T00:02:58.488Z,956.56
2017-03-08T00:03:58.472Z,956.6
2017-03-08T00:04:58.457Z,956.59
2017-03-08T00:05:58.442Z,956.57
2017-03-08T00:06:58.553Z,956.58
2017-03-08T00:07:58.411Z,956.6
2017-03-08T00:08:58.396Z,956.63
2017-03-08T00:09:58.493Z,956.7
2017-03-08T00:10:58.364Z,956.66
2017-03-08T00:11:58.351Z,956.75
2017-03-08T00:12:58.438Z,956.7
2017-03-08T00:13:58.318Z,956.74
2017-03-08T00:14:58.302Z,956.72
2017-03-08T00:15:58.407Z,956.73
2017-03-08T00:16:58.272Z,956.7
2017-03-08T00:17:58.256Z,956.65
2017-03-08T00:18:58.349Z,956.67
2017-03-08T00:19:58.224Z,956.7
2017-03-08T00:20:58.208Z,956.69
2017-03-08T00:21:58.222Z,956.68
2017-03-08T00:22:58.178Z,956.67
2017-03-08T00:23:58.162Z,956.71
2017-03-08T00:24:58.292Z,956.67
2017-03-08T00:25:58.164Z,956.73
2017-03-08T00:26:58.115Z,956.75
2017-03-08T00:27:58.326Z,956.7
2017-03-08T00:28:58.084Z,956.71
2017-03-08T00:29:58.069Z,956.72
2017-03-08T00:30:58.190Z,956.76
2017-03-08T00:31:58.036Z,956.77
2017-03-08T00:32:58.022Z,956.72
2017-03-08T00:33:58.005Z,956.7
2017-03-08T00:34:58.025Z,956.71
2017-03-08T00:35:57.973Z,956.69
2017-03-08T00:36:57.959Z,956.68
2017-03-08T00:37:57.943Z,956.7
2017-03-08T00:38:57.927Z,956.66
2017-03-08T00:39:57.912Z,956.67
2017-03-08T00:40:57.897Z,956.62
2017-03-08T00:41:57.880Z,956.64
2017-03-08T00:42:57.865Z,956.66
2017-03-08T00:43:57.847Z,956.67
2017-03-08T00:44:57.832Z,956.69
2017-03-08T00:45:57.818Z,956.69
2017-03-08T00:46:57.802Z,956.68
2017-03-08T00:47:57.786Z,956.71
2017-03-08T00:48:57.770Z,956.72
2017-03-08T00:49:57.755Z,956.7
2017-03-08T00:50:57.738Z,956.71
2017-03-08T00:51:57.724Z,956.72
2017-03-08T00:52:57.707Z,956.72
2017-03-08T00:53:57.786Z,956.7
2017-03-08T00:54:57.675Z,956.76
2017-03-08T00:55:57.661Z,956.75
2017-03-08T00:56:57.643Z,956.72
2017-03-08T00:57:57.709Z,956.73
2017-03-08T00:58:57.612Z,956.73
2017-03-08T00:59:57.602Z,956.72
2017-03-08T01:00:57.580Z,956.74
2017-03-08T01:01:57.568Z,956.69
2017-03-08T01:02:57.550Z,956.71
2017-03-08T01:03:57.535Z,956.73
2017-03-08T01:04:57.520Z,956.7
2017-03-08T01:05:57.504Z,956.73
2017-03-08T01:06:57.488Z,956.74
2017-03-08T01:07:57.471Z,956.7
2017-03-08T01:08:57.458Z,956.69
2017-03-08T01:09:57.440Z,956.68
2017-03-08T01:10:57.425Z,956.72
2017-03-08T01:11:57.410Z,956.69
2017-03-08T01:12:57.394Z,956.66
2017-03-08T01:13:57.379Z,956.66
2017-03-08T01:14:57.362Z,956.67
2017-03-08T01:15:57.346Z,956.7
2017-03-08T01:16:57.330Z,956.68
2017-03-08T01:17:57.315Z,956.68
2017-03-08T01:18:57.299Z,956.7
2017-03-08T01:19:57.284Z,956.67
2017-03-08T01:20:57.269Z,956.69
2017-03-08T01:21:57.253Z,956.7
2017-03-08T01:22:57.259Z,956.67
2017-03-08T01:23:57.243Z,956.71
2017-03-08T01:24:57.228Z,956.76
2017-03-08T01:25:57.211Z,956.67
2017-03-08T01:26:57.196Z,956.74
2017-03-08T01:27:57.180Z,956.71
2017-03-08T01:28:57.163Z,956.72
2017-03-08T01:29:57.149Z,956.74
2017-03-08T01:30:57.133Z,956.73
2017-03-08T01:31:57.115Z,956.75
2017-03-08T01:32:57.100Z,956.79
2017-03-08T01:33:57.086Z,956.78
2017-03-08T01:34:57.069Z,956.77
2017-03-08T01:35:57.053Z,956.8
2017-03-08T01:36:57.039Z,956.75
2017-03-08T01:37:57.021Z,956.8
2017-03-08T01:38:57.006Z,956.82
2017-03-08T01:39:56.988Z,956.82
2017-03-08T01:40:56.973Z,956.81
2017-03-08T01:41:56.958Z,956.76
2017-03-08T01:42:56.941Z,956.79
2017-03-08T01:43:56.925Z,956.76
2017-03-08T01:44:56.909Z,956.8
2017-03-08T01:45:56.893Z,956.78
2017-03-08T01:46:56.878Z,956.8
2017-03-08T01:47:56.861Z,956.75
2017-03-08T01:48:56.845Z,956.75
2017-03-08T01:49:56.829Z,956.75
2017-03-08T01:50:56.814Z,956.72
2017-03-08T01:51:56.797Z,956.7
2017-03-08T01:52:56.783Z,956.73
2017-03-08T01:53:56.764Z,956.68
2017-03-08T01:54:56.750Z,956.67
2017-03-08T01:55:56.733Z,956.68
2017-03-08T01:56:56.718Z,956.66
2017-03-08T01:57:56.702Z,956.64
2017-03-08T01:58:56.686Z,956.65
2017-03-08T01:59:56.670Z,956.66
2017-03-08T02:00:56.654Z,956.69
2017-03-08T02:01:56.639Z,956.74
2017-03-08T02:02:56.623Z,956.69
2017-03-08T02:03:56.607Z,956.74
2017-03-08T02:04:56.590Z,956.66
2017-03-08T02:05:56.575Z,956.69
2017-03-08T02:06:56.559Z,956.68
2017-03-08T02:07:56.544Z,956.66
2017-03-08T02:08:56.527Z,956.7
2017-03-08T02:09:56.517Z,956.69
2017-03-08T02:10:56.496Z,956.75
2017-03-08T02:11:56.479Z,956.74
2017-03-08T02:12:56.469Z,956.76
2017-03-08T02:13:56.449Z,956.71
2017-03-08T02:14:56.434Z,956.74
2017-03-08T02:15:56.417Z,956.73
2017-03-08T02:16:56.401Z,956.69
2017-03-08T02:17:56.386Z,956.72
2017-03-08T02:18:56.369Z,956.71
2017-03-08T02:19:56.355Z,956.74
2017-03-08T02:20:56.338Z,956.76
2017-03-08T02:21:56.321Z,956.79
2017-03-08T02:22:56.306Z,956.81
2017-03-08T02:23:56.290Z,956.87
2017-03-08T02:24:56.275Z,956.94
2017-03-08T02:25:56.263Z,956.96
2017-03-08T02:26:56.242Z,956.96
2017-03-08T02:27:56.230Z,957.02
2017-03-08T02:28:56.211Z,956.95
2017-03-08T02:29:56.196Z,957
2017-03-08T02:30:56.179Z,957.04
2017-03-08T02:31:56.165Z,956.96
2017-03-08T02:32:56.149Z,956.98
2017-03-08T02:33:56.132Z,956.99
2017-03-08T02:34:56.118Z,956.99
2017-03-08T02:35:56.100Z,956.98
2017-03-08T02:36:56.086Z,956.97
2017-03-08T02:37:56.069Z,957
2017-03-08T02:38:56.053Z,957.01
2017-03-08T02:39:56.038Z,956.97
2017-03-08T02:40:56.023Z,957.02
2017-03-08T02:41:56.006Z,957.06
2017-03-08T02:42:55.991Z,957.09
2017-03-08T02:43:55.975Z,957.14
2017-03-08T02:44:55.958Z,957.16
2017-03-08T02:45:55.943Z,957.22
2017-03-08T02:46:55.928Z,957.22
2017-03-08T02:47:55.916Z,957.26
2017-03-08T02:48:55.896Z,957.22
2017-03-08T02:49:55.881Z,957.2
2017-03-08T02:50:55.866Z,957.2
2017-03-08T02:51:55.850Z,957.22
2017-03-08T02:52:55.835Z,957.17
2017-03-08T02:53:55.819Z,957.21
2017-03-08T02:54:55.803Z,957.23
2017-03-08T02:55:55.786Z,957.24
2017-03-08T02:56:55.771Z,957.31
2017-03-08T02:57:55.756Z,957.29
2017-03-08T02:58:55.740Z,957.32
2017-03-08T02:59:55.723Z,957.32
2017-03-08T03:00:55.710Z,957.31
2017-03-08T03:01:55.695Z,957.34
2017-03-08T03:02:55.676Z,957.32
2017-03-08T03:03:55.662Z,957.31
2017-03-08T03:04:55.647Z,957.34
2017-03-08T03:05:55.631Z,957.37
2017-03-08T03:06:55.614Z,957.36
2017-03-08T03:07:55.600Z,957.38
2017-03-08T03:08:55.583Z,957.36
2017-03-08T03:09:55.567Z,957.37
2017-03-08T03:10:55.552Z,957.39
2017-03-08T03:11:55.536Z,957.39
2017-03-08T03:12:55.522Z,957.39
2017-03-08T03:13:55.505Z,957.44
2017-03-08T03:14:55.489Z,957.5
2017-03-08T03:15:55.475Z,957.48
2017-03-08T03:16:55.458Z,957.49
2017-03-08T03:17:55.443Z,957.51
2017-03-08T03:18:55.427Z,957.51
2017-03-08T03:19:55.411Z,957.54
2017-03-08T03:20:55.395Z,957.54
2017-03-08T03:21:55.380Z,957.54
2017-03-08T03:22:55.364Z,957.57
2017-03-08T03:23:55.349Z,957.61
2017-03-08T03:24:55.332Z,957.59
2017-03-08T03:25:55.318Z,957.67
2017-03-08T03:26:55.301Z,957.66
2017-03-08T03:27:55.287Z,957.7
2017-03-08T03:28:55.270Z,957.69
2017-03-08T03:29:55.254Z,957.75
2017-03-08T03:30:55.240Z,957.7
2017-03-08T03:31:55.222Z,957.69
2017-03-08T03:32:55.208Z,957.72
2017-03-08T03:33:55.192Z,957.69
2017-03-08T03:34:55.176Z,957.69
2017-03-08T03:35:55.159Z,957.69
2017-03-08T03:36:55.144Z,957.66
2017-03-08T03:37:55.129Z,957.66
2017-03-08T03:38:55.114Z,957.72
2017-03-08T03:39:55.098Z,957.75
2017-03-08T03:40:55.082Z,957.69
2017-03-08T03:41:55.068Z,957.64
2017-03-08T03:42:55.049Z,957.71
2017-03-08T03:43:55.035Z,957.65
2017-03-08T03:44:55.019Z,957.68
2017-03-08T03:45:55.004Z,957.67
2017-03-08T03:46:54.989Z,957.65
2017-03-08T03:47:54.974Z,957.7
2017-03-08T03:48:54.959Z,957.64
2017-03-08T03:49:54.943Z,957.68
2017-03-08T03:50:54.926Z,957.69
2017-03-08T03:51:54.911Z,957.7
2017-03-08T03:52:54.896Z,957.74
2017-03-08T03:53:54.880Z,957.73
2017-03-08T03:54:54.863Z,957.72
2017-03-08T03:55:54.850Z,957.74
2017-03-08T03:56:54.833Z,957.75
2017-03-08T03:57:54.818Z,957.75
2017-03-08T03:58:54.803Z,957.79
2017-03-08T03:59:54.791Z,957.8
2017-03-08T04:00:54.772Z,957.74
2017-03-08T04:01:54.755Z,957.75
2017-03-08T04:02:54.741Z,957.77
2017-03-08T04:03:54.726Z,957.74
2017-03-08T04:04:54.709Z,957.76
2017-03-08T04:05:54.695Z,957.71
2017-03-08T04:06:54.679Z,957.7
2017-03-08T04:07:54.663Z,957.68
2017-03-08T04:08:54.648Z,957.62
2017-03-08T04:09:54.632Z,957.63
2017-03-08T04:10:54.617Z,957.64
2017-03-08T04:11:54.602Z,957.66
2017-03-08T04:12:54.587Z,957.71
2017-03-08T04:13:54.571Z,957.66
2017-03-08T04:14:54.581Z,957.73
2017-03-08T04:15:54.539Z,957.69
2017-03-08T04:16:54.525Z,957.71
2017-03-08T04:17:54.509Z,957.7
2017-03-08T04:18:54.494Z,957.65
2017-03-08T04:19:54.479Z,957.63
2017-03-08T04:20:54.463Z,957.67
2017-03-08T04:21:54.448Z,957.67
2017-03-08T04:22:54.433Z,957.71
2017-03-08T04:23:54.418Z,957.69
2017-03-08T04:24:54.403Z,957.72
2017-03-08T04:25:54.388Z,957.72
2017-03-08T04:26:54.371Z,957.73
2017-03-08T04:27:54.358Z,957.79
2017-03-08T04:28:54.341Z,957.77
2017-03-08T04:29:54.328Z,957.76
2017-03-08T04:30:54.311Z,957.78
2017-03-08T04:31:54.297Z,957.81
2017-03-08T04:32:54.280Z,957.8
2017-03-08T04:33:54.266Z,957.81
2017-03-08T04:34:54.250Z,957.75
2017-03-08T04:35:54.235Z,957.72
2017-03-08T04:36:54.220Z,957.73
2017-03-08T04:37:54.205Z,957.77
2017-03-08T04:38:54.189Z,957.76
2017-03-08T04:39:54.174Z,957.73
2017-03-08T04:40:54.159Z,957.76
2017-03-08T04:41:54.144Z,957.73
2017-03-08T04:42:54.127Z,957.72
2017-03-08T04:43:54.113Z,957.73
2017-03-08T04:44:54.098Z,957.73
2017-03-08T04:45:54.082Z,957.75
2017-03-08T04:46:54.068Z,957.77
2017-03-08T04:47:54.056Z,957.75
2017-03-08T04:48:54.037Z,957.79
2017-03-08T04:49:54.022Z,957.84
2017-03-08T04:50:54.006Z,957.84
2017-03-08T04:51:53.991Z,957.8
2017-03-08T04:52:53.974Z,957.86
2017-03-08T04:53:53.961Z,957.83
2017-03-08T04:54:53.947Z,957.85
2017-03-08T04:55:53.930Z,957.82
2017-03-08T04:56:53.916Z,957.8
2017-03-08T04:57:53.899Z,957.8
2017-03-08T04:58:53.886Z,957.81
2017-03-08T04:59:53.869Z,957.81
2017-03-08T05:00:53.854Z,957.77
2017-03-08T05:01:53.839Z,957.75
2017-03-08T05:02:53.824Z,957.71
2017-03-08T05:03:53.808Z,957.77
2017-03-08T05:04:53.793Z,957.74
2017-03-08T05:05:53.778Z,957.76
2017-03-08T05:06:53.764Z,957.76
2017-03-08T05:07:53.748Z,957.77
2017-03-08T05:08:53.733Z,957.77
2017-03-08T05:09:53.719Z,957.79
2017-03-08T05:10:53.701Z,957.8
2017-03-08T05:11:53.687Z,957.74
2017-03-08T05:12:53.671Z,957.75
2017-03-08T05:13:53.656Z,957.76
2017-03-08T05:14:53.642Z,957.77
2017-03-08T05:15:53.626Z,957.77
2017-03-08T05:16:53.610Z,957.77
2017-03-08T05:17:53.594Z,957.78
2017-03-08T05:18:53.580Z,957.77
2017-03-08T05:19:53.564Z,957.81
2017-03-08T05:20:53.550Z,957.76
2017-03-08T05:21:53.533Z,957.76
2017-03-08T05:22:53.518Z,957.79
2017-03-08T05:23:53.503Z,957.82
2017-03-08T05:24:53.490Z,957.86
2017-03-08T05:25:53.472Z,957.88
2017-03-08T05:26:53.457Z,957.89
2017-03-08T05:27:53.441Z,957.84
2017-03-08T05:28:53.425Z,957.87
2017-03-08T05:29:53.410Z,957.86
2017-03-08T05:30:53.393Z,957.88
2017-03-08T05:31:53.379Z,957.94
2017-03-08T05:32:53.362Z,957.94
2017-03-08T05:33:53.347Z,958.02
2017-03-08T05:34:53.331Z,957.98
2017-03-08T05:35:53.317Z,957.92
2017-03-08T05:36:53.309Z,957.88
2017-03-08T05:37:53.284Z,957.9
2017-03-08T05:38:53.269Z,957.88
2017-03-08T05:39:53.251Z,957.87
2017-03-08T05:40:53.236Z,957.86
2017-03-08T05:41:53.220Z,957.92
2017-03-08T05:42:53.205Z,957.9
2017-03-08T05:43:53.190Z,957.94
2017-03-08T05:44:53.174Z,957.96
2017-03-08T05:45:53.157Z,957.94
2017-03-08T05:46:53.143Z,957.93
2017-03-08T05:47:53.125Z,957.96
2017-03-08T05:48:53.109Z,957.93
2017-03-08T05:49:53.094Z,957.91
2017-03-08T05:50:53.077Z,957.89
2017-03-08T05:51:53.063Z,957.94
2017-03-08T05:52:53.046Z,957.91
2017-03-08T05:53:53.030Z,957.97
2017-03-08T05:54:53.013Z,957.94
2017-03-08T05:55:52.998Z,957.97
2017-03-08T05:56:52.982Z,957.92
2017-03-08T05:57:52.968Z,957.96
2017-03-08T05:58:52.951Z,958.05
2017-03-08T05:59:52.936Z,958.05
2017-03-08T06:00:52.919Z,958.09
2017-03-08T06:01:52.903Z,958.07
2017-03-08T06:02:52.888Z,958.09
2017-03-08T06:03:52.870Z,958.11
2017-03-08T06:04:52.855Z,958.11
2017-03-08T06:05:52.839Z,958.1
2017-03-08T06:06:52.822Z,958.12
2017-03-08T06:07:52.806Z,958.14
2017-03-08T06:08:52.791Z,958.15
2017-03-08T06:09:52.774Z,958.16
2017-03-08T06:10:52.759Z,958.22
2017-03-08T06:11:52.742Z,958.22
2017-03-08T06:12:52.726Z,958.21
2017-03-08T06:13:52.710Z,958.18
2017-03-08T06:14:52.694Z,958.22
2017-03-08T06:15:52.679Z,958.22
2017-03-08T06:16:52.661Z,958.26
2017-03-08T06:17:52.645Z,958.31
2017-03-08T06:18:52.630Z,958.27
2017-03-08T06:19:52.613Z,958.27
2017-03-08T06:20:52.599Z,958.32
2017-03-08T06:21:52.581Z,958.33
2017-03-08T06:22:52.567Z,958.37
2017-03-08T06:23:52.550Z,958.42
2017-03-08T06:24:52.533Z,958.44
2017-03-08T06:25:52.519Z,958.44
2017-03-08T06:26:52.502Z,958.46
2017-03-08T06:27:52.487Z,958.5
2017-03-08T06:28:52.469Z,958.48
2017-03-08T06:29:52.457Z,958.49
2017-03-08T06:30:52.437Z,958.53
2017-03-08T06:31:52.422Z,958.57
2017-03-08T06:32:52.406Z,958.61
2017-03-08T06:33:52.391Z,958.61
2017-03-08T06:34:52.374Z,958.6
2017-03-08T06:35:52.359Z,958.63
2017-03-08T06:36:52.342Z,958.7
2017-03-08T06:37:52.327Z,958.64
2017-03-08T06:38:52.310Z,958.69
2017-03-08T06:39:52.295Z,958.68
2017-03-08T06:40:52.279Z,958.73
2017-03-08T06:41:52.263Z,958.82
2017-03-08T06:42:52.247Z,958.79
2017-03-08T06:43:52.230Z,958.75
2017-03-08T06:44:52.215Z,958.72
2017-03-08T06:45:52.200Z,958.73
2017-03-08T06:46:52.184Z,958.8
2017-03-08T06:47:52.168Z,958.8
2017-03-08T06:48:52.152Z,958.79
2017-03-08T06:49:52.136Z,958.77
2017-03-08T06:50:52.121Z,958.87
2017-03-08T06:51:52.106Z,958.81
2017-03-08T06:52:52.089Z,958.81
2017-03-08T06:53:52.076Z,958.86
2017-03-08T06:54:52.059Z,958.85
2017-03-08T06:55:52.044Z,958.93
2017-03-08T06:56:52.028Z,958.93
2017-03-08T06:57:52.012Z,958.91
2017-03-08T06:58:51.998Z,959.01
2017-03-08T06:59:51.983Z,959.01
2017-03-08T07:00:51.966Z,959
2017-03-08T07:01:51.952Z,959.03
2017-03-08T07:02:51.937Z,959.03
2017-03-08T07:03:51.920Z,958.98
2017-03-08T07:04:51.907Z,959.04
2017-03-08T07:05:51.891Z,959.05
2017-03-08T07:06:51.875Z,959.04
2017-03-08T07:07:51.859Z,959.02
2017-03-08T07:08:51.844Z,959.05
2017-03-08T07:09:51.830Z,958.97
2017-03-08T07:10:51.815Z,959.02
2017-03-08T07:11:51.800Z,959.04
2017-03-08T07:12:51.785Z,959.02
2017-03-08T07:13:51.771Z,958.99
2017-03-08T07:14:51.754Z,959
2017-03-08T07:15:51.740Z,959.01
2017-03-08T07:16:51.725Z,959.07
2017-03-08T07:17:51.711Z,959.01
2017-03-08T07:18:51.694Z,959.01
2017-03-08T07:19:51.681Z,959.01
2017-03-08T07:20:51.666Z,959.01
2017-03-08T07:21:51.651Z,958.98
2017-03-08T07:22:51.680Z,958.95
2017-03-08T07:23:51.621Z,958.92
2017-03-08T07:24:51.607Z,958.89
2017-03-08T07:25:51.591Z,958.87
2017-03-08T07:26:51.580Z,958.91
2017-03-08T07:27:51.563Z,958.88
2017-03-08T07:28:51.548Z,958.9
2017-03-08T07:29:51.532Z,958.82
2017-03-08T07:30:51.518Z,958.83
2017-03-08T07:31:51.503Z,958.82
2017-03-08T07:32:51.489Z,958.79
2017-03-08T07:33:51.475Z,958.84
2017-03-08T07:34:51.460Z,958.85
2017-03-08T07:35:51.447Z,958.78
2017-03-08T07:36:51.429Z,958.85
2017-03-08T07:37:51.417Z,958.78
2017-03-08T07:38:51.401Z,958.75
2017-03-08T07:39:51.388Z,958.75
2017-03-08T07:40:51.374Z,958.84
2017-03-08T07:41:51.356Z,958.84
2017-03-08T07:42:51.342Z,958.78
2017-03-08T07:43:51.327Z,958.82
2017-03-08T07:44:51.312Z,958.81
2017-03-08T07:45:51.298Z,958.85
2017-03-08T07:46:51.283Z,958.83
2017-03-08T07:47:51.268Z,958.81
2017-03-08T07:48:51.254Z,958.8
2017-03-08T07:49:51.240Z,958.81
2017-03-08T07:50:51.225Z,958.84
2017-03-08T07:51:51.209Z,958.86
2017-03-08T07:52:51.200Z,958.85
2017-03-08T07:53:51.182Z,958.89
2017-03-08T07:54:51.166Z,958.86
2017-03-08T07:55:51.151Z,958.83
2017-03-08T07:56:51.138Z,958.84
2017-03-08T07:57:51.124Z,958.8
2017-03-08T07:58:51.109Z,958.77
2017-03-08T07:59:51.095Z,958.8
2017-03-08T08:00:51.081Z,958.74
2017-03-08T08:01:51.066Z,958.75
2017-03-08T08:02:51.051Z,958.67
2017-03-08T08:03:51.038Z,958.69
2017-03-08T08:04:51.023Z,958.66
2017-03-08T08:05:51.008Z,958.65
2017-03-08T08:06:50.996Z,958.6
2017-03-08T08:07:50.983Z,958.6
2017-03-08T08:08:50.968Z,958.63
2017-03-08T08:09:50.954Z,958.66
2017-03-08T08:10:50.940Z,958.63
2017-03-08T08:11:50.926Z,958.64
2017-03-08T08:12:50.914Z,958.64
2017-03-08T08:13:50.898Z,958.67
2017-03-08T08:14:50.888Z,958.66
2017-03-08T08:15:50.871Z,958.7
2017-03-08T08:16:50.858Z,958.69
2017-03-08T08:17:50.844Z,958.69
2017-03-08T08:18:50.831Z,958.7
2017-03-08T08:19:50.818Z,958.7
2017-03-08T08:20:50.802Z,958.7
2017-03-08T08:21:50.789Z,958.75
2017-03-08T08:22:50.778Z,958.81
2017-03-08T08:23:50.764Z,958.86
2017-03-08T08:24:50.753Z,958.79
2017-03-08T08:25:50.736Z,958.81
2017-03-08T08:26:50.723Z,958.82
2017-03-08T08:27:50.711Z,958.85
2017-03-08T08:28:50.697Z,958.78
2017-03-08T08:29:50.685Z,958.89
2017-03-08T08:30:50.672Z,958.86
2017-03-08T08:31:50.657Z,958.87
2017-03-08T08:32:50.645Z,958.85
2017-03-08T08:33:50.632Z,958.9
2017-03-08T08:34:50.619Z,958.89
2017-03-08T08:35:50.606Z,958.86
2017-03-08T08:36:50.593Z,958.9
2017-03-08T08:37:50.584Z,958.87
2017-03-08T08:38:50.566Z,958.85
2017-03-08T08:39:50.553Z,958.89
2017-03-08T08:40:50.541Z,958.89
2017-03-08T08:41:50.528Z,958.84
2017-03-08T08:42:50.515Z,958.8
2017-03-08T08:43:50.502Z,958.78
2017-03-08T08:44:50.489Z,958.77
2017-03-08T08:45:50.477Z,958.78
2017-03-08T08:46:50.463Z,958.77
2017-03-08T08:47:50.451Z,958.73
2017-03-08T08:48:50.437Z,958.71
2017-03-08T08:49:50.424Z,958.67
2017-03-08T08:50:50.412Z,958.72
2017-03-08T08:51:50.398Z,958.7
2017-03-08T08:52:50.390Z,958.72
2017-03-08T08:53:50.377Z,958.66
2017-03-08T08:54:50.363Z,958.65
2017-03-08T08:55:50.351Z,958.64
2017-03-08T08:56:50.339Z,958.62
2017-03-08T08:57:50.327Z,958.68
2017-03-08T08:58:50.312Z,958.67
2017-03-08T08:59:50.302Z,958.65
2017-03-08T09:00:50.290Z,958.66
2017-03-08T09:01:50.284Z,958.65
2017-03-08T09:02:50.266Z,958.62
2017-03-08T09:03:50.254Z,958.66
2017-03-08T09:04:50.244Z,958.69
2017-03-08T09:05:50.229Z,958.68
2017-03-08T09:06:50.217Z,958.7
2017-03-08T09:07:50.204Z,958.73
2017-03-08T09:08:50.199Z,958.72
2017-03-08T09:09:50.182Z,958.75
2017-03-08T09:10:50.170Z,958.72
2017-03-08T09:11:50.158Z,958.72
2017-03-08T09:12:50.146Z,958.7
2017-03-08T09:13:50.134Z,958.68
2017-03-08T09:14:50.122Z,958.71
2017-03-08T09:15:50.111Z,958.66
2017-03-08T09:16:50.098Z,958.69
2017-03-08T09:17:50.087Z,958.7
2017-03-08T09:18:50.075Z,958.63
2017-03-08T09:19:50.061Z,958.68
2017-03-08T09:20:50.051Z,958.65
2017-03-08T09:21:50.040Z,958.63
2017-03-08T09:22:50.027Z,958.67
2017-03-08T09:23:50.015Z,958.66
2017-03-08T09:24:50.003Z,958.65
2017-03-08T09:25:49.991Z,958.61
2017-03-08T09:26:49.980Z,958.6
2017-03-08T09:27:49.969Z,958.59
2017-03-08T09:28:49.958Z,958.58
2017-03-08T09:29:49.946Z,958.57
2017-03-08T09:30:49.934Z,958.61
2017-03-08T09:31:49.922Z,958.64
2017-03-08T09:32:49.911Z,958.62
2017-03-08T09:33:49.898Z,958.63
2017-03-08T09:34:49.887Z,958.64
2017-03-08T09:35:49.876Z,958.7
2017-03-08T09:36:49.864Z,958.68
2017-03-08T09:37:49.851Z,958.71
2017-03-08T09:38:49.841Z,958.7
2017-03-08T09:39:49.831Z,958.67
2017-03-08T09:40:49.817Z,958.68
2017-03-08T09:41:49.806Z,958.7
2017-03-08T09:42:49.796Z,958.73
2017-03-08T09:43:49.784Z,958.7
2017-03-08T09:44:49.772Z,958.67
2017-03-08T09:45:49.759Z,958.67
2017-03-08T09:46:49.749Z,958.68
2017-03-08T09:47:49.736Z,958.67
2017-03-08T09:48:49.723Z,958.75
2017-03-08T09:49:49.713Z,958.69
2017-03-08T09:50:49.700Z,958.69
2017-03-08T09:51:49.688Z,958.71
2017-03-08T09:52:49.681Z,958.69
2017-03-08T09:53:49.667Z,958.72
2017-03-08T09:54:49.655Z,958.75
2017-03-08T09:55:49.642Z,958.7
2017-03-08T09:56:49.630Z,958.67
2017-03-08T09:57:49.619Z,958.62
2017-03-08T09:58:49.609Z,958.62
2017-03-08T09:59:49.595Z,958.58
2017-03-08T10:00:49.587Z,958.58
2017-03-08T10:01:49.573Z,958.57
2017-03-08T10:02:49.562Z,958.58
2017-03-08T10:03:49.553Z,958.58
2017-03-08T10:04:49.539Z,958.62
2017-03-08T10:05:49.527Z,958.55
2017-03-08T10:06:49.517Z,958.58
2017-03-08T10:07:49.505Z,958.54
2017-03-08T10:08:49.495Z,958.55
2017-03-08T10:09:49.484Z,958.5
2017-03-08T10:10:49.470Z,958.43
2017-03-08T10:11:49.460Z,958.45
2017-03-08T10:12:49.455Z,958.44
2017-03-08T10:13:49.438Z,958.45
2017-03-08T10:14:49.427Z,958.45
2017-03-08T10:15:49.419Z,958.38
2017-03-08T10:16:49.408Z,958.48
2017-03-08T10:17:49.395Z,958.49
2017-03-08T10:18:49.386Z,958.48
2017-03-08T10:19:49.374Z,958.46
2017-03-08T10:20:49.365Z,958.6
2017-03-08T10:21:49.353Z,958.69
2017-03-08T10:22:49.343Z,958.7
2017-03-08T10:23:49.333Z,958.73
2017-03-08T10:24:49.322Z,958.67
2017-03-08T10:25:49.311Z,958.63
2017-03-08T10:26:49.300Z,958.66
2017-03-08T10:27:49.292Z,958.7
2017-03-08T10:28:49.281Z,958.68
2017-03-08T10:29:49.271Z,958.63
2017-03-08T10:30:49.261Z,958.65
2017-03-08T10:31:49.249Z,958.62
2017-03-08T10:32:49.238Z,958.6
2017-03-08T10:33:49.230Z,958.65
2017-03-08T10:34:49.218Z,958.6
2017-03-08T10:35:49.206Z,958.59
2017-03-08T10:36:49.197Z,958.66
2017-03-08T10:37:49.186Z,958.74
2017-03-08T10:38:49.176Z,958.7
2017-03-08T10:39:49.166Z,958.67
2017-03-08T10:40:49.154Z,958.69
2017-03-08T10:41:49.143Z,958.67
2017-03-08T10:42:49.135Z,958.68
2017-03-08T10:43:49.125Z,958.67
2017-03-08T10:44:49.112Z,958.66
2017-03-08T10:45:49.104Z,958.65
2017-03-08T10:46:49.092Z,958.7
2017-03-08T10:47:49.082Z,958.7
2017-03-08T10:48:49.071Z,958.68
2017-03-08T10:49:49.061Z,958.68
2017-03-08T10:50:49.052Z,958.64
2017-03-08T10:51:49.042Z,958.62
2017-03-08T10:52:49.031Z,958.58
2017-03-08T10:53:49.020Z,958.62
2017-03-08T10:54:49.010Z,958.58
2017-03-08T10:55:49.008Z,958.62
2017-03-08T10:56:48.990Z,958.61
2017-03-08T10:57:48.980Z,958.6
2017-03-08T10:58:48.971Z,958.58
2017-03-08T10:59:48.960Z,958.59
2017-03-08T11:00:48.951Z,958.58
2017-03-08T11:01:48.940Z,958.56
2017-03-08T11:02:48.929Z,958.55
2017-03-08T11:03:48.919Z,958.46
2017-03-08T11:04:48.910Z,958.56
2017-03-08T11:05:48.902Z,958.57
2017-03-08T11:06:48.888Z,958.65
2017-03-08T11:07:48.879Z,958.56
2017-03-08T11:08:48.868Z,958.57
2017-03-08T11:09:48.859Z,958.6
2017-03-08T11:10:48.848Z,958.5
2017-03-08T11:11:48.838Z,958.55
2017-03-08T11:12:48.826Z,958.51
2017-03-08T11:13:48.818Z,958.52
2017-03-08T11:14:48.807Z,958.52
2017-03-08T11:15:48.798Z,958.52
2017-03-08T11:16:48.787Z,958.46
2017-03-08T11:17:48.774Z,958.42
2017-03-08T11:18:48.765Z,958.45
2017-03-08T11:19:48.755Z,958.43
2017-03-08T11:20:48.744Z,958.43
2017-03-08T11:21:48.734Z,958.39
2017-03-08T11:22:48.725Z,958.38
2017-03-08T11:23:48.713Z,958.39
2017-03-08T11:24:48.703Z,958.34
2017-03-08T11:25:48.693Z,958.36
2017-03-08T11:26:48.682Z,958.37
2017-03-08T11:27:48.673Z,958.36
2017-03-08T11:28:48.662Z,958.28
2017-03-08T11:29:48.653Z,958.31
2017-03-08T11:30:48.642Z,958.27
2017-03-08T11:31:48.631Z,958.26
2017-03-08T11:32:48.624Z,958.22
2017-03-08T11:33:48.611Z,958.26
2017-03-08T11:34:48.602Z,958.2
2017-03-08T11:35:48.591Z,958.2
2017-03-08T11:36:48.582Z,958.23
2017-03-08T11:37:48.571Z,958.29
2017-03-08T11:38:48.561Z,958.22
2017-03-08T11:39:48.550Z,958.22
2017-03-08T11:40:48.540Z,958.15
2017-03-08T11:41:48.529Z,958.18
2017-03-08T11:42:48.519Z,958.16
2017-03-08T11:43:48.510Z,958.15
2017-03-08T11:44:48.499Z,958.19
2017-03-08T11:45:48.489Z,958.16
2017-03-08T11:46:48.480Z,958.14
2017-03-08T11:47:48.469Z,958.13
2017-03-08T11:48:48.458Z,958.09
2017-03-08T11:49:48.448Z,958.06
2017-03-08T11:50:48.439Z,958.05
2017-03-08T11:51:48.429Z,958.03
2017-03-08T11:52:48.418Z,958.01
2017-03-08T11:53:48.407Z,957.99
2017-03-08T11:54:48.397Z,958.02
2017-03-08T11:55:48.387Z,957.99
2017-03-08T11:56:48.376Z,957.93
2017-03-08T11:57:48.367Z,957.9
2017-03-08T11:58:48.356Z,957.86
2017-03-08T11:59:48.346Z,957.87
2017-03-08T12:00:48.337Z,957.79
2017-03-08T12:01:48.327Z,957.72
2017-03-08T12:02:48.316Z,957.67
2017-03-08T12:03:48.306Z,957.64
2017-03-08T12:04:48.295Z,957.66
2017-03-08T12:05:48.286Z,957.63
2017-03-08T12:06:48.276Z,957.64
2017-03-08T12:07:48.265Z,957.6
2017-03-08T12:08:48.255Z,957.65
2017-03-08T12:09:48.247Z,957.6
2017-03-08T12:10:48.234Z,957.6
2017-03-08T12:11:48.224Z,957.57
2017-03-08T12:12:48.214Z,957.56
2017-03-08T12:13:48.204Z,957.58
2017-03-08T12:14:48.240Z,957.48
2017-03-08T12:15:48.184Z,957.56
2017-03-08T12:16:48.314Z,957.52
2017-03-08T12:17:48.270Z,957.57
2017-03-08T12:18:48.153Z,957.54
2017-03-08T12:19:48.142Z,957.55
2017-03-08T12:20:48.132Z,957.48
2017-03-08T12:21:48.181Z,957.48
2017-03-08T12:22:48.112Z,957.51
2017-03-08T12:23:48.101Z,957.52
2017-03-08T12:24:48.091Z,957.5
2017-03-08T12:25:48.079Z,957.5
2017-03-08T12:26:48.069Z,957.49
2017-03-08T12:27:48.059Z,957.51
2017-03-08T12:28:48.048Z,957.48
2017-03-08T12:29:48.037Z,957.53
2017-03-08T12:30:48.026Z,957.52
2017-03-08T12:31:48.018Z,957.52